Time;durP1;ratioP1;P1;durP2;ratioP2;P2;SDS_P1;SDS_P2;PMS_P1;PMS_P2;Temp;Humidity;BMP_temperature;BMP_pressure;BME280_temperature;BME280_humidity;BME280_pressure;Samples;Min_cycle;Max_cycle;Signal;HPM_P1;HPM_P2
2023/08/31 00:03:10;;;;;;;5.33;2.77;;;;;;;16.86;76.94;98601.47;7249201;40;20257;31
2023/08/31 00:08:32;;;;;;;5.10;3.40;;;;;;;16.83;77.46;98599.22;7192477;40;20264;31
2023/08/31 00:13:52;;;;;;;3.80;3.40;;;;;;;16.74;77.25;98603.25;7225758;40;20337;31
2023/08/31 00:19:27;;;;;;;4.50;3.30;;;;;;;16.58;78.14;98606.53;7255279;39;20377;31
2023/08/31 00:25:03;;;;;;;4.20;3.30;;;;;;;16.56;78.77;98601.25;7278475;40;20259;31
2023/08/31 00:30:39;;;;;;;7.87;3.60;;;;;;;16.64;78.23;98597.47;7228719;40;20351;31
2023/08/31 00:36:16;;;;;;;5.03;3.27;;;;;;;16.63;77.97;98603.94;7231250;40;21210;31
2023/08/31 00:41:51;;;;;;;5.57;3.40;;;;;;;16.59;79.04;98602.72;7248748;40;20726;31
2023/08/31 00:47:26;;;;;;;3.93;3.27;;;;;;;16.58;78.12;98604.63;7187118;40;20748;31
2023/08/31 00:53:01;;;;;;;4.00;3.10;;;;;;;16.48;78.16;98604.25;7208726;40;20245;31
2023/08/31 00:58:35;;;;;;;3.90;2.67;;;;;;;16.47;77.77;98624.34;7220588;40;20258;31
2023/08/31 01:04:11;;;;;;;6.77;3.00;;;;;;;16.43;78.87;98616.81;7228579;40;20353;31
2023/08/31 01:09:47;;;;;;;4.60;2.80;;;;;;;16.40;78.20;98618.09;7271145;40;20253;31
2023/08/31 01:15:24;;;;;;;4.00;2.80;;;;;;;16.34;78.47;98623.56;7255458;39;20320;31
2023/08/31 01:21:00;;;;;;;4.45;2.50;;;;;;;16.32;78.43;98623.81;7238083;40;20241;31
2023/08/31 01:26:35;;;;;;;3.70;2.60;;;;;;;16.31;78.69;98613.13;7228022;40;20268;31
2023/08/31 01:32:12;;;;;;;3.80;2.50;;;;;;;16.37;78.33;98620.41;7229613;40;20242;31
2023/08/31 01:37:48;;;;;;;4.50;2.63;;;;;;;16.46;78.68;98627.25;7218850;40;20344;31
2023/08/31 01:43:25;;;;;;;5.23;2.60;;;;;;;16.48;76.95;98638.78;7225087;40;20255;31
2023/08/31 01:48:46;;;;;;;5.30;2.70;;;;;;;16.45;77.38;98637.34;7170877;40;20259;31
2023/08/31 01:54:07;;;;;;;4.57;2.30;;;;;;;16.53;76.78;98638.97;7229454;40;20586;31
2023/08/31 01:59:42;;;;;;;3.77;2.17;;;;;;;16.45;76.60;98641.94;7285168;39;20258;31
2023/08/31 02:05:17;;;;;;;4.50;2.40;;;;;;;16.35;77.36;98644.28;7288815;39;20327;31
2023/08/31 02:10:54;;;;;;;4.06;2.46;;;;;;;16.36;78.34;98640.53;7258738;40;20704;31
2023/08/31 02:16:30;;;;;;;2.70;2.20;;;;;;;16.29;78.10;98650.56;7247452;40;20248;31
2023/08/31 02:21:50;;;;;;;3.30;2.20;;;;;;;16.22;77.20;98656.91;7158541;40;20270;31
2023/08/31 02:27:10;;;;;;;3.17;2.20;;;;;;;16.18;77.88;98663.00;7137659;40;20263;31
2023/08/31 02:32:47;;;;;;;5.27;2.57;;;;;;;16.06;77.47;98656.56;7218588;39;20275;31
2023/08/31 02:38:07;;;;;;;4.37;2.17;;;;;;;16.10;78.35;98658.59;7292422;39;20251;31
2023/08/31 02:43:28;;;;;;;4.23;2.10;;;;;;;16.08;78.03;98657.16;7287029;40;20255;31
2023/08/31 02:49:03;;;;;;;3.87;2.20;;;;;;;16.02;79.38;98658.84;7316621;40;20277;31
2023/08/31 02:54:23;;;;;;;3.53;2.37;;;;;;;16.11;78.55;98651.28;7237505;39;20248;31
2023/08/31 02:59:44;;;;;;;3.47;2.20;;;;;;;16.15;77.57;98657.97;7249767;40;20241;31
2023/08/31 03:05:21;;;;;;;4.82;2.14;;;;;;;16.08;77.27;98655.28;7272770;39;20328;31
2023/08/31 03:10:42;;;;;;;4.15;2.50;;;;;;;16.05;78.11;98666.59;7263079;39;20245;31
2023/08/31 03:16:18;;;;;;;4.70;2.33;;;;;;;15.89;78.28;98675.19;7285530;39;20240;31
2023/08/31 03:21:54;;;;;;;6.00;2.40;;;;;;;15.80;79.00;98670.22;7256685;40;20265;31
2023/08/31 03:27:15;;;;;;;5.03;2.57;;;;;;;15.78;78.70;98686.75;7245719;40;20333;31
2023/08/31 03:32:49;;;;;;;4.05;2.80;;;;;;;15.82;78.55;98687.16;7247374;40;20250;31
2023/08/31 03:38:25;;;;;;;5.33;2.37;;;;;;;15.80;78.30;98679.19;7236200;40;20345;31
2023/08/31 03:43:45;;;;;;;4.10;2.20;;;;;;;15.76;78.71;98678.78;7286841;39;20329;31
2023/08/31 03:49:21;;;;;;;4.30;2.40;;;;;;;15.71;78.89;98681.31;7301644;40;20248;31
2023/08/31 03:54:57;;;;;;;3.93;2.40;;;;;;;15.65;79.58;98678.62;7295191;39;20383;31
2023/08/31 04:00:32;;;;;;;6.80;2.60;;;;;;;15.65;78.87;98686.75;7308580;39;21186;31
2023/08/31 04:06:04;;;;;;;5.90;3.10;;;;;;;15.64;79.50;98696.78;7289418;40;20281;31
2023/08/31 04:11:38;;;;;;;4.43;2.50;;;;;;;15.56;79.68;98704.31;7217698;40;20245;31
2023/08/31 04:16:58;;;;;;;6.77;2.90;;;;;;;15.59;80.13;98707.44;7290160;39;20315;31
2023/08/31 04:22:32;;;;;;;4.90;2.40;;;;;;;15.66;79.67;98715.63;7306990;39;20252;31
2023/08/31 04:28:08;;;;;;;4.85;2.50;;;;;;;15.50;79.30;98716.00;7209630;40;20265;31
2023/08/31 04:33:43;;;;;;;5.94;2.30;;;;;;;15.48;79.83;98712.66;7250023;40;20325;31
2023/08/31 04:39:04;;;;;;;5.03;2.50;;;;;;;15.50;79.77;98718.72;7229746;40;20265;31
2023/08/31 04:44:38;;;;;;;3.90;2.10;;;;;;;15.55;78.98;98718.94;7206096;40;20243;31
2023/08/31 04:49:59;;;;;;;3.77;2.53;;;;;;;15.59;79.25;98721.03;7221703;40;20392;31
2023/08/31 04:55:34;;;;;;;5.83;2.53;;;;;;;15.58;79.56;98734.81;7289697;39;20240;31
2023/08/31 05:06:15;;;;;;;5.10;2.70;;;;;;;15.51;78.68;98751.13;7278367;39;20269;31
2023/08/31 05:16:39;;;;;;;3.90;2.33;;;;;;;15.41;78.61;98763.41;7336196;39;20351;31
2023/08/31 05:27:20;;;;;;;4.40;2.30;;;;;;;15.39;78.27;98769.06;7343138;39;20290;31
2023/08/31 05:37:42;;;;;;;5.60;2.33;;;;;;;15.43;79.49;98788.50;7380119;39;20502;31
2023/08/31 05:43:17;;;;;;;4.67;2.30;;;;;;;15.43;78.81;98777.62;7357206;39;20288;31
2023/08/31 05:53:39;;;;;;;5.87;1.93;;;;;;;15.51;78.70;98789.16;7381040;39;21092;31
2023/08/31 05:59:14;;;;;;;4.67;2.30;;;;;;;15.58;78.40;98789.16;7384012;39;20247;31
2023/08/31 06:04:49;;;;;;;5.28;2.33;;;;;;;15.64;78.17;98800.03;7381843;39;20295;31
2023/08/31 06:10:24;;;;;;;3.43;2.20;;;;;;;15.52;78.41;98809.03;7318712;39;20243;31
2023/08/31 06:16:00;;;;;;;5.43;2.23;;;;;;;15.56;79.45;98813.00;7270429;40;20246;31
2023/08/31 06:21:20;;;;;;;3.90;2.20;;;;;;;15.55;78.63;98823.03;7217915;40;20277;31
2023/08/31 06:32:01;;;;;;;6.03;2.57;;;;;;;15.73;78.94;98814.25;7282525;40;20268;31
2023/08/31 06:37:34;;;;;;;5.73;2.37;;;;;;;15.83;78.83;98824.72;7017262;40;21268;31
2023/08/31 06:42:54;;;;;;;5.70;2.17;;;;;;;15.93;77.73;98831.38;7145789;40;20267;31
2023/08/31 06:53:33;;;;;;;5.12;2.40;;;;;;;16.05;76.92;98840.59;7175262;40;20273;31
2023/08/31 06:58:54;;;;;;;6.40;2.30;;;;;;;16.18;77.86;98843.31;7290345;39;20379;31
2023/08/31 07:04:29;;;;;;;5.20;2.40;;;;;;;16.20;75.89;98840.34;7332903;39;20251;31
2023/08/31 07:10:05;;;;;;;5.97;2.47;;;;;;;16.29;76.80;98849.13;7301504;39;20271;31
2023/08/31 07:15:31;;;;;;;5.20;1.93;;;;;;;16.42;76.22;98847.22;7269075;40;20241;31
2023/08/31 07:21:07;;;;;;;5.10;2.10;;;;;;;16.49;74.55;98836.34;7263928;40;20261;31
2023/08/31 07:26:42;;;;;;;5.47;2.13;;;;;;;16.54;74.31;98850.16;7246505;40;20368;31
2023/08/31 07:32:18;;;;;;;7.28;2.35;;;;;;;16.70;73.52;98860.59;7241122;40;20298;31
2023/08/31 07:37:54;;;;;;;5.83;2.13;;;;;;;16.95;73.57;98860.69;7252425;40;20274;31
2023/08/31 07:48:31;;;;;;;3.63;2.10;;;;;;;17.05;72.07;98861.09;7244012;40;20656;31
2023/08/31 07:54:06;;;;;;;4.93;2.37;;;;;;;17.13;69.96;98875.28;7203210;40;20269;31
2023/08/31 07:59:41;;;;;;;7.60;2.30;;;;;;;17.25;69.62;98882.75;7172181;40;20298;31
2023/08/31 08:05:18;;;;;;;7.50;2.10;;;;;;;17.39;68.60;98898.00;7169445;40;20246;31
2023/08/31 08:16:23;;;;;;;3.20;1.70;;;;;;;17.60;66.67;98910.47;7361191;38;10078963;31
2023/08/31 08:21:59;;;;;;;3.90;2.00;;;;;;;17.67;66.08;98912.13;7408691;39;20339;31
2023/08/31 08:27:20;;;;;;;3.55;1.70;;;;;;;17.93;66.12;98906.50;7326873;39;20317;31
2023/08/31 08:32:57;;;;;;;6.63;2.07;;;;;;;18.08;65.22;98899.91;7366989;39;20268;31
2023/08/31 08:38:17;;;;;;;7.50;2.20;;;;;;;18.31;64.44;98911.84;7311578;39;20255;31
2023/08/31 08:43:52;;;;;;;6.17;2.10;;;;;;;18.37;63.10;98901.94;7268536;40;20349;31
2023/08/31 08:49:27;;;;;;;3.30;1.70;;;;;;;18.61;61.73;98920.22;7212665;40;20229;31
2023/08/31 08:55:02;;;;;;;5.30;1.80;;;;;;;18.83;60.13;98918.72;7232618;40;20345;31
2023/08/31 09:00:37;;;;;;;2.40;1.67;;;;;;;18.95;60.05;98909.78;7287812;39;20241;31
2023/08/31 09:06:13;;;;;;;4.50;2.00;;;;;;;19.06;60.47;98895.34;7260693;40;20256;31
2023/08/31 09:11:47;;;;;;;4.47;1.83;;;;;;;19.28;58.99;98907.50;7264856;40;20249;31
2023/08/31 09:17:07;;;;;;;4.00;1.77;;;;;;;19.33;57.73;98913.94;7267650;40;20261;31
2023/08/31 09:22:43;;;;;;;4.90;1.85;;;;;;;19.64;56.83;98903.87;7179888;40;20410;31
2023/08/31 09:28:05;;;;;;;4.37;2.20;;;;;;;19.87;54.61;98914.91;7201169;40;20772;31
2023/08/31 09:33:25;;;;;;;4.18;1.90;;;;;;;20.07;55.21;98923.66;7214422;40;20814;31
2023/08/31 09:39:01;;;;;;;6.95;2.12;;;;;;;20.18;52.83;98913.81;7198215;40;20964;31
2023/08/31 09:44:36;;;;;;;4.73;1.93;;;;;;;20.23;53.52;98931.16;7244646;40;20878;31
2023/08/31 09:50:11;;;;;;;4.13;2.17;;;;;;;20.25;54.02;98911.78;7219238;40;20819;31
2023/08/31 09:55:48;;;;;;;3.70;2.00;;;;;;;20.60;53.33;98912.66;7239906;40;20241;31
2023/08/31 10:01:23;;;;;;;4.73;1.87;;;;;;;20.52;53.15;98902.09;7237022;40;21047;31
2023/08/31 10:06:44;;;;;;;6.40;2.30;;;;;;;20.31;53.81;98924.56;7257083;40;20241;31
2023/08/31 10:12:21;;;;;;;3.65;1.90;;;;;;;20.41;52.22;98924.78;7271497;40;20257;31
2023/08/31 10:17:58;;;;;;;3.75;2.00;;;;;;;20.01;53.48;98931.97;7272515;40;20464;31
2023/08/31 10:28:39;;;;;;;5.90;2.40;;;;;;;20.13;53.21;98936.41;7294928;39;20292;31
2023/08/31 10:34:14;;;;;;;7.10;2.30;;;;;;;19.94;52.38;98923.84;7255195;40;20241;31
2023/08/31 10:39:50;;;;;;;7.04;2.22;;;;;;;19.70;52.90;98933.06;7269744;39;20640;31
2023/08/31 10:45:27;;;;;;;9.70;2.40;;;;;;;19.57;55.09;98927.75;7239146;40;20345;31
2023/08/31 10:50:49;;;;;;;5.27;2.07;;;;;;;19.66;55.12;98935.38;7167953;40;20262;31
2023/08/31 10:56:09;;;;;;;5.00;2.20;;;;;;;19.79;53.68;98929.72;7225398;40;20272;31
2023/08/31 11:02:13;;;;;;;4.27;2.40;;;;;;;20.23;54.83;98924.84;7338747;40;20230;31
2023/08/31 11:08:02;;;;;;;4.28;2.12;;;;;;;20.12;54.39;98928.41;7258947;40;20255;31
2023/08/31 11:13:24;;;;;;;6.35;2.22;;;;;;;19.82;55.07;98933.94;7248715;40;20386;31
2023/08/31 11:19:01;;;;;;;6.70;2.20;;;;;;;19.52;54.89;98928.47;7277141;40;20267;31
2023/08/31 11:24:36;;;;;;;4.77;2.00;;;;;;;19.42;55.96;98928.13;7202146;40;20249;31
2023/08/31 11:30:11;;;;;;;4.83;2.20;;;;;;;19.44;55.96;98923.28;7239003;40;20278;31
2023/08/31 11:40:52;;;;;;;3.92;2.35;;;;;;;20.00;55.83;98908.41;7190486;40;21377;31
2023/08/31 11:46:27;;;;;;;6.32;2.45;;;;;;;20.07;55.64;98909.13;7214584;40;20241;31
2023/08/31 11:52:04;;;;;;;4.06;2.14;;;;;;;20.20;54.97;98908.91;7224548;40;20260;31
2023/08/31 11:57:43;;;;;;;5.53;2.33;;;;;;;19.82;55.62;98911.22;7236252;40;20454;31
2023/08/31 12:03:04;;;;;;;5.87;2.40;;;;;;;20.17;54.01;98909.38;7210111;40;20370;31
2023/08/31 12:08:39;;;;;;;7.00;2.40;;;;;;;20.79;54.05;98898.84;7261424;40;20260;31
2023/08/31 12:14:16;;;;;;;5.23;2.00;;;;;;;21.11;52.67;98897.34;7217485;40;20242;31
2023/08/31 12:19:51;;;;;;;6.03;2.27;;;;;;;21.23;51.97;98887.25;7253981;40;20237;31
2023/08/31 12:25:42;;;;;;;;;;;;;;;;;;;;;
2023/08/31 12:31:09;;;;;;;4.40;2.20;;;;;;;21.15;52.03;98887.59;7256070;40;20362;31
2023/08/31 12:36:45;;;;;;;4.97;2.20;;;;;;;20.91;51.63;98905.16;7288338;40;20223;31
2023/08/31 12:42:19;;;;;;;4.30;2.53;;;;;;;20.71;53.40;98896.47;7268578;40;20256;31
2023/08/31 12:47:55;;;;;;;5.45;2.58;;;;;;;20.83;53.13;98881.69;7257889;40;20703;31
2023/08/31 12:53:30;;;;;;;4.57;2.20;;;;;;;20.69;52.92;98883.84;7243928;40;20771;31
2023/08/31 12:59:07;;;;;;;6.10;2.60;;;;;;;20.61;53.90;98878.75;7226202;40;20245;31
2023/08/31 13:04:43;;;;;;;5.30;2.33;;;;;;;20.42;52.94;98899.09;7258752;40;20241;31
2023/08/31 13:15:33;;;;;;;6.57;2.67;;;;;;;20.21;54.71;98902.38;7280544;39;20271;31
2023/08/31 13:21:08;;;;;;;4.80;2.30;;;;;;;20.37;54.99;98896.22;7339927;39;20248;31
2023/08/31 13:31:34;;;;;;;5.00;2.20;;;;;;;20.36;55.39;98899.22;7315731;39;20253;31
2023/08/31 13:42:12;;;;;;;8.37;2.70;;;;;;;19.94;56.68;98912.06;7315092;39;20535;31
2023/08/31 13:47:32;;;;;;;3.73;2.30;;;;;;;19.87;57.32;98912.19;7279227;39;20288;31
2023/08/31 13:53:07;;;;;;;6.30;2.50;;;;;;;19.82;57.78;98903.00;7283961;40;20302;31
2023/08/31 13:58:45;;;;;;;5.20;2.20;;;;;;;19.76;58.01;98929.38;7197505;40;20380;31
2023/08/31 14:04:21;;;;;;;3.87;2.10;;;;;;;19.69;60.26;98937.69;7188966;40;20336;31
2023/08/31 14:09:40;;;;;;;8.90;2.53;;;;;;;19.54;60.64;98929.03;7238842;40;20396;31
2023/08/31 14:15:18;;;;;;;6.93;2.53;;;;;;;19.42;62.19;98922.66;7256881;40;20242;31
2023/08/31 14:25:58;;;;;;;4.68;2.30;;;;;;;19.19;63.85;98915.16;7337598;39;21072;31
2023/08/31 14:31:34;;;;;;;5.70;2.33;;;;;;;19.19;63.45;98917.06;7286682;40;20264;31
2023/08/31 14:42:15;;;;;;;6.03;2.40;;;;;;;19.39;62.01;98916.81;7277248;40;20273;31
2023/08/31 14:47:51;;;;;;;4.10;2.17;;;;;;;19.46;62.82;98918.44;7271151;40;20276;31
2023/08/31 14:53:26;;;;;;;5.00;2.40;;;;;;;19.60;61.06;98919.94;7275141;39;20275;31
2023/08/31 14:58:46;;;;;;;5.70;2.30;;;;;;;19.62;61.99;98917.78;7261330;40;20240;31
2023/08/31 15:04:22;;;;;;;7.47;2.47;;;;;;;19.76;62.49;98912.97;7043745;40;20231;31
2023/08/31 15:10:03;;;;;;;8.90;2.43;;;;;;;19.83;62.64;98913.72;7289469;39;20716;31
2023/08/31 15:15:36;;;;;;;5.07;2.55;;;;;;;19.88;61.94;98902.87;7273321;40;20237;31
2023/08/31 15:21:17;;;;;;;6.50;2.60;;;;;;;19.91;62.46;98890.66;7228454;40;20877;31
2023/08/31 15:26:38;;;;;;;6.96;2.50;;;;;;;20.06;62.65;98894.59;7257370;40;20828;31
2023/08/31 15:31:59;;;;;;;5.87;2.37;;;;;;;20.17;60.80;98907.50;7269810;40;20754;31
2023/08/31 15:37:35;;;;;;;6.37;2.50;;;;;;;20.23;61.96;98908.44;7279337;39;20341;31
2023/08/31 15:43:10;;;;;;;7.78;2.58;;;;;;;20.51;61.28;98903.16;7283947;39;20253;31
2023/08/31 15:48:45;;;;;;;5.03;2.53;;;;;;;20.23;61.02;98909.25;7255997;40;20760;31
2023/08/31 15:54:19;;;;;;;4.10;2.20;;;;;;;20.20;61.59;98917.13;7239342;40;20238;31
2023/08/31 15:59:39;;;;;;;7.55;2.80;;;;;;;20.14;61.16;98923.56;7212609;40;20246;31
2023/08/31 16:05:16;;;;;;;7.70;2.87;;;;;;;19.98;62.58;98930.50;7249432;40;20328;31
2023/08/31 16:16:13;;;;;;;7.80;2.73;;;;;;;19.31;67.22;98951.59;7218239;40;20513;31
2023/08/31 16:21:48;;;;;;;6.27;2.60;;;;;;;19.11;67.94;98939.22;7288569;39;20245;31
2023/08/31 16:27:25;;;;;;;7.00;2.70;;;;;;;19.06;69.30;98937.19;7230813;40;20375;31
2023/08/31 16:33:06;;;;;;;5.60;2.90;;;;;;;19.04;68.93;98930.28;7310672;40;20242;31
2023/08/31 16:38:41;;;;;;;7.45;2.80;;;;;;;19.04;68.13;98908.44;7278196;40;20265;31
2023/08/31 16:44:15;;;;;;;4.43;2.40;;;;;;;18.99;68.48;98914.56;7254609;40;20405;31
2023/08/31 16:49:50;;;;;;;7.70;2.80;;;;;;;18.96;69.04;98914.16;7255149;40;20265;31
2023/08/31 16:55:11;;;;;;;6.45;2.70;;;;;;;18.98;69.96;98917.53;7257053;40;20241;31
2023/08/31 17:00:44;;;;;;;5.45;3.10;;;;;;;18.97;69.68;98913.13;7324821;39;20452;31
2023/08/31 17:06:05;;;;;;;6.30;2.80;;;;;;;18.95;70.06;98912.53;7226125;40;20319;31
2023/08/31 17:21:54;;;;;;;5.93;2.40;;;;;;;18.68;69.55;98921.00;7311149;39;21127;31
2023/08/31 17:27:14;;;;;;;6.50;2.30;;;;;;;18.67;69.52;98923.94;7255685;40;20249;31
2023/08/31 17:32:54;;;;;;;5.63;2.53;;;;;;;18.62;70.04;98924.63;7320726;39;20240;31
2023/08/31 17:38:34;;;;;;;4.97;2.50;;;;;;;18.61;70.72;98925.69;7372661;39;20263;31
2023/08/31 17:44:05;;;;;;;6.30;2.40;;;;;;;18.50;69.78;98934.59;7277548;39;20261;31
2023/08/31 17:49:26;;;;;;;6.00;2.40;;;;;;;18.37;70.23;98946.44;7259404;40;20410;31
2023/08/31 17:55:02;;;;;;;8.00;2.67;;;;;;;18.30;71.10;98956.56;7257030;40;20790;31
2023/08/31 18:00:37;;;;;;;5.30;2.80;;;;;;;18.19;71.28;98956.47;7237131;40;20261;31
2023/08/31 18:05:58;;;;;;;5.70;2.70;;;;;;;18.18;71.82;98952.06;7226393;40;20290;31
2023/08/31 18:11:38;;;;;;;7.93;2.60;;;;;;;18.02;73.11;98948.81;7216030;40;20760;31
2023/08/31 18:17:13;;;;;;;5.25;2.45;;;;;;;17.98;73.29;98942.13;7248704;40;20764;31
2023/08/31 18:22:48;;;;;;;7.65;2.85;;;;;;;18.05;73.46;98939.34;7218518;40;20824;31
2023/08/31 18:28:24;;;;;;;5.30;2.60;;;;;;;18.11;72.98;98930.28;7232501;40;20254;31
2023/08/31 18:34:00;;;;;;;4.08;2.48;;;;;;;18.16;73.38;98937.81;7190236;40;20221;31
2023/08/31 18:39:34;;;;;;;5.35;2.75;;;;;;;18.17;73.16;98950.38;7115324;40;20729;31
2023/08/31 18:45:13;;;;;;;4.77;2.73;;;;;;;18.10;73.23;98960.50;7171594;40;20235;31
2023/08/31 18:50:28;;;;;;;6.60;2.60;;;;;;;18.05;73.14;98968.50;7168689;40;20250;31
2023/08/31 18:56:04;;;;;;;4.87;2.80;;;;;;;18.07;73.81;98961.81;7206426;40;20250;31
2023/08/31 19:01:40;;;;;;;7.90;2.80;;;;;;;18.17;73.54;98972.19;7195952;40;20257;31
2023/08/31 19:07:02;;;;;;;5.17;2.63;;;;;;;18.16;73.08;98973.28;7196833;40;20273;31
2023/08/31 19:12:22;;;;;;;5.10;2.60;;;;;;;18.16;73.41;98976.84;7186180;40;20250;31
2023/08/31 19:17:58;;;;;;;3.90;2.23;;;;;;;18.13;73.91;98981.88;7233394;40;20266;31
2023/08/31 19:23:34;;;;;;;7.40;2.60;;;;;;;18.08;73.82;98985.28;7235236;40;20359;31
2023/08/31 19:29:09;;;;;;;7.63;2.80;;;;;;;18.03;73.64;98976.94;7204638;40;20343;31
2023/08/31 19:34:46;;;;;;;5.33;2.57;;;;;;;18.01;74.63;98981.75;7187597;40;20277;31
2023/08/31 19:40:29;;;;;;;5.53;2.80;;;;;;;18.00;74.58;98980.09;7189799;40;20348;31
2023/08/31 19:46:04;;;;;;;5.03;2.73;;;;;;;17.98;74.52;98991.22;7158019;40;20258;31
2023/08/31 19:51:43;;;;;;;5.63;2.53;;;;;;;17.98;74.98;98985.78;7127014;40;20266;31
2023/08/31 20:02:12;;;;;;;7.00;2.70;;;;;;;17.94;74.86;98979.09;7248128;40;21132;31
2023/08/31 20:07:46;;;;;;;6.07;2.77;;;;;;;17.91;75.04;98979.50;7221344;40;20249;31
2023/08/31 20:13:06;;;;;;;5.35;2.80;;;;;;;17.89;74.83;98981.63;7270113;39;20256;31
2023/08/31 20:23:49;;;;;;;3.90;2.70;;;;;;;17.83;75.60;98990.69;7297337;40;20269;31
2023/08/31 20:29:08;;;;;;;6.70;3.00;;;;;;;17.81;76.68;98997.41;7297154;40;20263;31
2023/08/31 20:34:29;;;;;;;5.73;3.00;;;;;;;17.75;77.20;98995.56;7285446;39;20243;31
2023/08/31 20:40:07;;;;;;;4.40;3.00;;;;;;;17.60;78.20;98992.25;7276409;40;20261;31
2023/08/31 20:45:27;;;;;;;6.80;3.00;;;;;;;17.53;78.84;98993.09;7225291;40;20249;31
2023/08/31 20:50:48;;;;;;;7.80;2.90;;;;;;;17.54;78.20;98989.34;7256405;40;20704;31
2023/08/31 20:56:26;;;;;;;5.00;2.90;;;;;;;17.59;78.59;98985.16;7268603;39;20715;31
2023/08/31 21:01:45;;;;;;;5.13;2.90;;;;;;;17.62;78.03;98992.88;7250521;39;20315;31
2023/08/31 21:07:20;;;;;;;6.23;3.17;;;;;;;17.63;79.44;98995.41;7301387;39;20646;31
2023/08/31 21:17:57;;;;;;;4.58;2.82;;;;;;;17.61;79.88;98992.03;7256762;39;21202;31
2023/08/31 21:28:21;;;;;;;8.00;3.30;;;;;;;17.55;80.20;98988.25;7286226;39;21174;31
2023/08/31 21:33:58;;;;;;;4.60;3.30;;;;;;;17.50;79.98;98977.19;7274276;39;20815;31
2023/08/31 21:39:33;;;;;;;5.65;3.00;;;;;;;17.38;81.37;98970.72;7264157;39;20948;31
2023/08/31 21:50:15;;;;;;;6.18;3.35;;;;;;;17.44;81.43;98967.16;7317783;39;21172;31
2023/08/31 21:55:50;;;;;;;5.77;3.70;;;;;;;17.38;81.46;98961.72;7262829;40;20257;31
2023/08/31 22:01:23;;;;;;;4.30;3.10;;;;;;;17.32;82.01;98971.59;7059933;40;20272;31
2023/08/31 22:07:04;;;;;;;4.47;3.07;;;;;;;17.30;82.54;98967.41;7216263;40;20292;31
2023/08/31 22:12:40;;;;;;;6.50;3.30;;;;;;;17.39;82.72;98969.69;7199103;40;20735;31
2023/08/31 22:18:06;;;;;;;5.00;3.20;;;;;;;17.33;83.07;98961.53;7274123;40;20253;31
2023/08/31 22:23:41;;;;;;;4.70;3.20;;;;;;;17.22;83.82;98946.69;7269063;40;20644;31
2023/08/31 22:29:03;;;;;;;5.97;3.67;;;;;;;17.31;83.31;98939.97;7259073;40;20288;31
2023/08/31 22:39:43;;;;;;;5.80;3.50;;;;;;;17.31;83.82;98933.66;7263214;40;20737;31
2023/08/31 22:45:20;;;;;;;5.05;3.80;;;;;;;17.37;83.39;98927.37;7215870;40;20282;31
2023/08/31 22:50:55;;;;;;;5.53;3.70;;;;;;;17.37;84.01;98933.66;7303601;39;20423;31
2023/08/31 22:56:33;;;;;;;6.30;3.58;;;;;;;17.39;83.65;98936.13;7295850;40;21748;31
2023/08/31 23:07:17;;;;;;;7.70;3.70;;;;;;;17.40;82.90;98924.19;7235387;40;21188;31
2023/08/31 23:18:00;;;;;;;7.53;3.75;;;;;;;17.08;85.65;98907.78;7264075;39;20248;31
2023/08/31 23:23:36;;;;;;;4.60;3.50;;;;;;;17.04;86.55;98906.53;7278648;40;20283;31
2023/08/31 23:28:56;;;;;;;4.43;3.60;;;;;;;17.07;85.90;98906.09;7257642;40;20250;31
2023/08/31 23:34:36;;;;;;;5.56;3.68;;;;;;;17.03;86.64;98907.59;7242942;40;20305;31
2023/08/31 23:39:55;;;;;;;7.50;4.10;;;;;;;16.95;86.14;98913.28;7213580;40;20246;31
2023/08/31 23:45:30;;;;;;;6.33;4.50;;;;;;;16.87;87.28;98905.34;7253126;40;20281;31
2023/08/31 23:51:06;;;;;;;6.90;4.42;;;;;;;16.88;87.13;98903.47;7277850;39;20240;31
2023/08/31 23:56:27;;;;;;;5.35;4.50;;;;;;;16.79;86.98;98888.41;7249324;40;20268;31
